sensor_id;sensor_type;location;lat;lon;timestamp;pressure;altitude;pressure_sealevel;temperature;humidity
40574;BME280;26283;49.020;8.644;2022-08-18T00:02:21;98860.53;;;26.68;46.81
40574;BME280;26283;49.020;8.644;2022-08-18T00:04:47;98872.75;;;26.67;46.92
40574;BME280;26283;49.020;8.644;2022-08-18T00:07:21;98884.59;;;26.68;46.59
40574;BME280;26283;49.020;8.644;2022-08-18T00:09:49;98890.13;;;26.68;46.73
40574;BME280;26283;49.020;8.644;2022-08-18T00:12:28;98888.50;;;26.67;46.64
40574;BME280;26283;49.020;8.644;2022-08-18T00:14:57;98898.75;;;26.66;46.86
40574;BME280;26283;49.020;8.644;2022-08-18T00:17:30;98902.66;;;26.65;47.04
40574;BME280;26283;49.020;8.644;2022-08-18T00:20:07;98900.72;;;26.66;46.96
40574;BME280;26283;49.020;8.644;2022-08-18T00:22:42;98899.09;;;26.64;47.09
40574;BME280;26283;49.020;8.644;2022-08-18T00:25:17;98899.09;;;26.64;47.07
40574;BME280;26283;49.020;8.644;2022-08-18T00:27:49;98891.94;;;26.63;47.24
40574;BME280;26283;49.020;8.644;2022-08-18T00:30:20;98914.03;;;26.63;46.80
40574;BME280;26283;49.020;8.644;2022-08-18T00:32:54;98908.06;;;26.61;46.76
40574;BME280;26283;49.020;8.644;2022-08-18T00:35:37;98913.59;;;26.61;46.59
40574;BME280;26283;49.020;8.644;2022-08-18T00:38:08;98924.66;;;26.61;46.92
40574;BME280;26283;49.020;8.644;2022-08-18T00:41:01;98914.75;;;26.60;46.70
40574;BME280;26283;49.020;8.644;2022-08-18T00:43:50;98924.97;;;26.60;46.75
40574;BME280;26283;49.020;8.644;2022-08-18T00:46:37;98926.13;;;26.59;47.08
40574;BME280;26283;49.020;8.644;2022-08-18T00:49:21;98925.66;;;26.57;47.02
40574;BME280;26283;49.020;8.644;2022-08-18T00:51:52;98931.16;;;26.57;47.01
40574;BME280;26283;49.020;8.644;2022-08-18T00:54:27;98928.75;;;26.55;47.11
40574;BME280;26283;49.020;8.644;2022-08-18T00:57:02;98925.97;;;26.55;47.28
40574;BME280;26283;49.020;8.644;2022-08-18T00:59:58;98918.50;;;26.56;47.26
40574;BME280;26283;49.020;8.644;2022-08-18T01:02:35;98914.28;;;26.50;47.31
40574;BME280;26283;49.020;8.644;2022-08-18T01:05:14;98918.00;;;26.54;46.97
40574;BME280;26283;49.020;8.644;2022-08-18T01:07:47;98914.44;;;26.53;47.40
40574;BME280;26283;49.020;8.644;2022-08-18T01:10:34;98914.44;;;26.53;47.16
40574;BME280;26283;49.020;8.644;2022-08-18T01:13:06;98912.81;;;26.52;47.52
40574;BME280;26283;49.020;8.644;2022-08-18T01:15:38;98908.44;;;26.51;47.32
40574;BME280;26283;49.020;8.644;2022-08-18T01:18:22;98905.66;;;26.51;47.28
40574;BME280;26283;49.020;8.644;2022-08-18T01:21:17;98911.19;;;26.51;47.63
40574;BME280;26283;49.020;8.644;2022-08-18T01:24:13;98903.22;;;26.50;47.16
40574;BME280;26283;49.020;8.644;2022-08-18T01:26:43;98906.34;;;26.48;47.17
40574;BME280;26283;49.020;8.644;2022-08-18T01:29:23;98912.66;;;26.49;47.01
40574;BME280;26283;49.020;8.644;2022-08-18T01:31:53;98916.56;;;26.48;46.89
40574;BME280;26283;49.020;8.644;2022-08-18T01:34:21;98922.44;;;26.46;46.97
40574;BME280;26283;49.020;8.644;2022-08-18T01:36:55;98926.81;;;26.47;46.91
40574;BME280;26283;49.020;8.644;2022-08-18T01:39:27;98915.59;;;26.44;46.90
40574;BME280;26283;49.020;8.644;2022-08-18T01:41:53;98916.91;;;26.46;46.93
40574;BME280;26283;49.020;8.644;2022-08-18T01:44:31;98922.44;;;26.46;46.90
40574;BME280;26283;49.020;8.644;2022-08-18T01:47:06;98908.81;;;26.41;46.99
40574;BME280;26283;49.020;8.644;2022-08-18T01:49:35;98911.72;;;26.45;46.90
40574;BME280;26283;49.020;8.644;2022-08-18T01:52:08;98898.91;;;26.40;46.96
40574;BME280;26283;49.020;8.644;2022-08-18T01:54:37;98910.09;;;26.44;47.03
40574;BME280;26283;49.020;8.644;2022-08-18T01:57:05;98904.56;;;26.44;46.79
40574;BME280;26283;49.020;8.644;2022-08-18T01:59:41;98891.06;;;26.42;46.84
40574;BME280;26283;49.020;8.644;2022-08-18T02:02:08;98891.88;;;26.43;46.64
40574;BME280;26283;49.020;8.644;2022-08-18T02:04:35;98868.62;;;26.44;47.76
40574;BME280;26283;49.020;8.644;2022-08-18T02:07:05;98868.31;;;26.45;48.17
40574;BME280;26283;49.020;8.644;2022-08-18T02:09:31;98879.56;;;26.40;47.94
40574;BME280;26283;49.020;8.644;2022-08-18T02:11:57;98870.97;;;26.33;48.25
40574;BME280;26283;49.020;8.644;2022-08-18T02:14:24;98869.50;;;26.27;48.45
40574;BME280;26283;49.020;8.644;2022-08-18T02:16:49;98872.78;;;26.20;48.90
40574;BME280;26283;49.020;8.644;2022-08-18T02:19:14;98865.03;;;26.14;48.89
40574;BME280;26283;49.020;8.644;2022-08-18T02:21:43;98866.00;;;26.09;48.78
40574;BME280;26283;49.020;8.644;2022-08-18T02:24:08;98857.91;;;26.04;48.87
40574;BME280;26283;49.020;8.644;2022-08-18T02:26:34;98853.34;;;26.00;48.86
40574;BME280;26283;49.020;8.644;2022-08-18T02:28:59;98859.25;;;25.98;49.03
40574;BME280;26283;49.020;8.644;2022-08-18T02:31:25;98864.59;;;25.94;49.20
40574;BME280;26283;49.020;8.644;2022-08-18T02:33:51;98868.03;;;25.91;48.42
40574;BME280;26283;49.020;8.644;2022-08-18T02:36:16;98862.00;;;25.89;48.56
40574;BME280;26283;49.020;8.644;2022-08-18T02:38:43;98863.47;;;25.87;48.67
40574;BME280;26283;49.020;8.644;2022-08-18T02:41:10;98857.16;;;25.86;48.39
40574;BME280;26283;49.020;8.644;2022-08-18T02:43:37;98853.91;;;25.84;48.85
40574;BME280;26283;49.020;8.644;2022-08-18T02:46:04;98849.53;;;25.83;48.68
40574;BME280;26283;49.020;8.644;2022-08-18T02:48:30;98845.94;;;25.83;48.55
40574;BME280;26283;49.020;8.644;2022-08-18T02:51:15;98845.94;;;25.83;48.61
40574;BME280;26283;49.020;8.644;2022-08-18T02:53:43;98844.66;;;25.80;48.99
40574;BME280;26283;49.020;8.644;2022-08-18T02:56:10;98830.03;;;25.80;49.27
40574;BME280;26283;49.020;8.644;2022-08-18T02:58:56;98832.00;;;25.79;49.33
40574;BME280;26283;49.020;8.644;2022-08-18T03:01:25;98826.00;;;25.77;49.06
40574;BME280;26283;49.020;8.644;2022-08-18T03:03:52;98818.88;;;25.76;49.06
40574;BME280;26283;49.020;8.644;2022-08-18T03:06:18;98811.75;;;25.75;48.82
40574;BME280;26283;49.020;8.644;2022-08-18T03:08:45;98814.50;;;25.75;48.87
40574;BME280;26283;49.020;8.644;2022-08-18T03:11:19;98807.34;;;25.74;48.48
40574;BME280;26283;49.020;8.644;2022-08-18T03:13:45;98807.34;;;25.74;48.42
40574;BME280;26283;49.020;8.644;2022-08-18T03:16:12;98805.72;;;25.73;48.71
40574;BME280;26283;49.020;8.644;2022-08-18T03:18:37;98810.44;;;25.73;48.93
40574;BME280;26283;49.020;8.644;2022-08-18T03:21:10;98798.91;;;25.71;48.86
40574;BME280;26283;49.020;8.644;2022-08-18T03:23:37;98796.16;;;25.71;49.28
40574;BME280;26283;49.020;8.644;2022-08-18T03:26:07;98803.63;;;25.70;49.25
40574;BME280;26283;49.020;8.644;2022-08-18T03:28:41;98806.38;;;25.70;49.74
40574;BME280;26283;49.020;8.644;2022-08-18T03:31:08;98805.91;;;25.68;49.87
40574;BME280;26283;49.020;8.644;2022-08-18T03:33:35;98805.91;;;25.68;49.69
40574;BME280;26283;49.020;8.644;2022-08-18T03:36:25;98809.81;;;25.67;49.60
40574;BME280;26283;49.020;8.644;2022-08-18T03:38:52;98803.47;;;25.67;49.69
40574;BME280;26283;49.020;8.644;2022-08-18T03:41:21;98801.03;;;25.65;49.76
40574;BME280;26283;49.020;8.644;2022-08-18T03:43:49;98795.84;;;25.64;49.88
40574;BME280;26283;49.020;8.644;2022-08-18T03:46:16;98807.69;;;25.64;49.80
40574;BME280;26283;49.020;8.644;2022-08-18T03:48:43;98803.31;;;25.63;49.82
40574;BME280;26283;49.020;8.644;2022-08-18T03:51:17;98813.53;;;25.62;49.81
40574;BME280;26283;49.020;8.644;2022-08-18T03:53:43;98816.59;;;25.61;49.71
40574;BME280;26283;49.020;8.644;2022-08-18T03:56:12;98809.44;;;25.60;49.76
40574;BME280;26283;49.020;8.644;2022-08-18T03:59:04;98801.19;;;25.60;49.79
40574;BME280;26283;49.020;8.644;2022-08-18T04:01:37;98796.78;;;25.59;49.82
40574;BME280;26283;49.020;8.644;2022-08-18T04:04:06;98796.78;;;25.59;49.92
40574;BME280;26283;49.020;8.644;2022-08-18T04:06:35;98791.59;;;25.57;50.03
40574;BME280;26283;49.020;8.644;2022-08-18T04:09:05;98788.03;;;25.57;50.13
40574;BME280;26283;49.020;8.644;2022-08-18T04:11:32;98787.22;;;25.56;50.13
40574;BME280;26283;49.020;8.644;2022-08-18T04:13:58;98788.03;;;25.57;50.36
40574;BME280;26283;49.020;8.644;2022-08-18T04:16:25;98788.72;;;25.54;50.49
40574;BME280;26283;49.020;8.644;2022-08-18T04:18:51;98798.59;;;25.55;50.50
40574;BME280;26283;49.020;8.644;2022-08-18T04:21:16;98797.00;;;25.54;50.57
40574;BME280;26283;49.020;8.644;2022-08-18T04:23:43;98798.94;;;25.53;50.65
40574;BME280;26283;49.020;8.644;2022-08-18T04:26:09;98802.84;;;25.52;50.49
40574;BME280;26283;49.020;8.644;2022-08-18T04:28:36;98805.59;;;25.52;50.42
40574;BME280;26283;49.020;8.644;2022-08-18T04:31:06;98807.53;;;25.52;50.39
40574;BME280;26283;49.020;8.644;2022-08-18T04:33:32;98811.44;;;25.51;50.61
40574;BME280;26283;49.020;8.644;2022-08-18T04:35:58;98814.19;;;25.51;50.83
40574;BME280;26283;49.020;8.644;2022-08-18T04:38:23;98812.56;;;25.50;50.75
40574;BME280;26283;49.020;8.644;2022-08-18T04:40:49;98817.28;;;25.49;50.72
40574;BME280;26283;49.020;8.644;2022-08-18T04:43:14;98814.53;;;25.49;50.88
40574;BME280;26283;49.020;8.644;2022-08-18T04:45:41;98814.84;;;25.48;50.97
40574;BME280;26283;49.020;8.644;2022-08-18T04:48:09;98822.31;;;25.47;51.23
40574;BME280;26283;49.020;8.644;2022-08-18T04:50:35;98821.50;;;25.47;51.42
40574;BME280;26283;49.020;8.644;2022-08-18T04:53:01;98825.41;;;25.46;51.78
40574;BME280;26283;49.020;8.644;2022-08-18T04:55:47;98837.25;;;25.46;51.95
40574;BME280;26283;49.020;8.644;2022-08-18T04:58:13;98836.75;;;25.44;52.08
40574;BME280;26283;49.020;8.644;2022-08-18T05:00:40;98844.22;;;25.44;52.18
40574;BME280;26283;49.020;8.644;2022-08-18T05:03:07;98841.47;;;25.44;52.34
40574;BME280;26283;49.020;8.644;2022-08-18T05:05:33;98852.81;;;25.42;52.38
40574;BME280;26283;49.020;8.644;2022-08-18T05:07:58;98852.81;;;25.42;52.40
40574;BME280;26283;49.020;8.644;2022-08-18T05:10:23;98866.13;;;25.40;52.47
40574;BME280;26283;49.020;8.644;2022-08-18T05:12:49;98862.56;;;25.40;52.46
40574;BME280;26283;49.020;8.644;2022-08-18T05:15:14;98867.25;;;25.39;52.73
40574;BME280;26283;49.020;8.644;2022-08-18T05:17:41;98874.72;;;25.39;52.82
40574;BME280;26283;49.020;8.644;2022-08-18T05:20:07;98868.41;;;25.38;52.90
40574;BME280;26283;49.020;8.644;2022-08-18T05:22:38;98868.72;;;25.37;52.97
40574;BME280;26283;49.020;8.644;2022-08-18T05:25:06;98861.25;;;25.37;53.01
40574;BME280;26283;49.020;8.644;2022-08-18T05:27:33;98858.81;;;25.36;53.13
40574;BME280;26283;49.020;8.644;2022-08-18T05:30:00;98856.88;;;25.36;53.10
40574;BME280;26283;49.020;8.644;2022-08-18T05:32:26;98854.44;;;25.35;53.18
40574;BME280;26283;49.020;8.644;2022-08-18T05:34:56;98845.34;;;25.34;52.99
40574;BME280;26283;49.020;8.644;2022-08-18T05:37:31;98841.00;;;25.33;52.99
40574;BME280;26283;49.020;8.644;2022-08-18T05:40:03;98840.19;;;25.33;53.08
40574;BME280;26283;49.020;8.644;2022-08-18T05:42:35;98835.81;;;25.32;52.85
40574;BME280;26283;49.020;8.644;2022-08-18T05:45:08;98830.28;;;25.32;52.69
40574;BME280;26283;49.020;8.644;2022-08-18T05:47:35;98828.66;;;25.31;52.76
40574;BME280;26283;49.020;8.644;2022-08-18T05:50:07;98830.62;;;25.30;52.88
40574;BME280;26283;49.020;8.644;2022-08-18T05:53:02;98825.09;;;25.30;52.67
40574;BME280;26283;49.020;8.644;2022-08-18T05:55:30;98819.91;;;25.28;52.35
40574;BME280;26283;49.020;8.644;2022-08-18T05:58:21;98835.31;;;25.30;52.38
40574;BME280;26283;49.020;8.644;2022-08-18T06:00:53;98815.03;;;25.25;52.39
40574;BME280;26283;49.020;8.644;2022-08-18T06:03:24;98830.44;;;25.26;52.23
40574;BME280;26283;49.020;8.644;2022-08-18T06:06:04;98828.50;;;25.27;52.00
40574;BME280;26283;49.020;8.644;2022-08-18T06:08:47;98818.94;;;25.24;52.36
40574;BME280;26283;49.020;8.644;2022-08-18T06:11:14;98828.84;;;25.25;52.66
40574;BME280;26283;49.020;8.644;2022-08-18T06:13:41;98826.06;;;25.25;52.46
40574;BME280;26283;49.020;8.644;2022-08-18T06:16:19;98827.22;;;25.24;52.08
40574;BME280;26283;49.020;8.644;2022-08-18T06:18:56;98820.88;;;25.24;52.13
40574;BME280;26283;49.020;8.644;2022-08-18T06:24:31;98828.66;;;25.22;52.00
40574;BME280;26283;49.020;8.644;2022-08-18T06:27:29;98840.50;;;25.22;51.99
40574;BME280;26283;49.020;8.644;2022-08-18T06:35:41;98849.44;;;25.19;52.39
40574;BME280;26283;49.020;8.644;2022-08-18T06:41:12;98852.50;;;25.18;52.02
40574;BME280;26283;49.020;8.644;2022-08-18T06:43:48;98863.53;;;25.18;52.37
40574;BME280;26283;49.020;8.644;2022-08-18T06:46:22;98862.72;;;25.17;52.80
40574;BME280;26283;49.020;8.644;2022-08-18T06:49:23;98859.47;;;25.15;52.79
40574;BME280;26283;49.020;8.644;2022-08-18T06:51:43;98866.63;;;25.16;52.75
40574;BME280;26283;49.020;8.644;2022-08-18T06:59:27;98870.50;;;25.15;53.55
40574;BME280;26283;49.020;8.644;2022-08-18T07:02:19;98872.13;;;25.16;53.57
40574;BME280;26283;49.020;8.644;2022-08-18T07:04:58;98869.69;;;25.15;53.71
40574;BME280;26283;49.020;8.644;2022-08-18T07:07:34;98870.50;;;25.15;53.96
40574;BME280;26283;49.020;8.644;2022-08-18T07:10:01;98866.94;;;25.15;53.31
40574;BME280;26283;49.020;8.644;2022-08-18T07:12:29;98863.38;;;25.14;53.27
40574;BME280;26283;49.020;8.644;2022-08-18T07:15:03;98862.56;;;25.14;53.42
40574;BME280;26283;49.020;8.644;2022-08-18T07:17:33;98874.41;;;25.14;53.33
40574;BME280;26283;49.020;8.644;2022-08-18T07:20:19;98876.34;;;25.14;53.42
40574;BME280;26283;49.020;8.644;2022-08-18T07:25:27;98896.47;;;25.14;53.61
40574;BME280;26283;49.020;8.644;2022-08-18T07:27:53;98897.59;;;25.13;53.60
40574;BME280;26283;49.020;8.644;2022-08-18T07:35:21;98909.75;;;25.12;53.79
40574;BME280;26283;49.020;8.644;2022-08-18T07:38:22;98911.37;;;25.13;53.86
40574;BME280;26283;49.020;8.644;2022-08-18T07:41:05;98911.69;;;25.12;53.94
40574;BME280;26283;49.020;8.644;2022-08-18T07:43:48;98901.84;;;25.11;54.05
40574;BME280;26283;49.020;8.644;2022-08-18T07:46:25;98901.03;;;25.10;54.20
40574;BME280;26283;49.020;8.644;2022-08-18T07:48:55;98899.41;;;25.09;54.11
40574;BME280;26283;49.020;8.644;2022-08-18T07:57:28;98908.81;;;25.08;54.45
40574;BME280;26283;49.020;8.644;2022-08-18T08:00:03;98896.97;;;25.08;54.45
40574;BME280;26283;49.020;8.644;2022-08-18T08:05:08;98899.22;;;25.06;54.65
40574;BME280;26283;49.020;8.644;2022-08-18T08:12:56;98909.13;;;25.07;54.36
40574;BME280;26283;49.020;8.644;2022-08-18T08:15:50;98905.56;;;25.06;54.17
40574;BME280;26283;49.020;8.644;2022-08-18T08:31:34;98918.84;;;25.04;53.83
40574;BME280;26283;49.020;8.644;2022-08-18T08:37:17;98921.09;;;25.02;53.86
40574;BME280;26283;49.020;8.644;2022-08-18T08:39:50;98927.44;;;25.03;54.12
40574;BME280;26283;49.020;8.644;2022-08-18T08:42:45;98913.97;;;25.01;54.35
40574;BME280;26283;49.020;8.644;2022-08-18T08:45:33;98901.00;;;25.02;54.06
40574;BME280;26283;49.020;8.644;2022-08-18T08:50:34;98885.59;;;25.01;54.82
40574;BME280;26283;49.020;8.644;2022-08-18T08:53:26;98902.13;;;25.01;54.54
40574;BME280;26283;49.020;8.644;2022-08-18T08:56:00;98910.41;;;25.01;55.46
40574;BME280;26283;49.020;8.644;2022-08-18T08:58:48;98924.19;;;25.01;54.94
40574;BME280;26283;49.020;8.644;2022-08-18T09:01:32;98920.28;;;25.02;54.79
40574;BME280;26283;49.020;8.644;2022-08-18T09:07:13;98931.31;;;25.02;54.14
40574;BME280;26283;49.020;8.644;2022-08-18T09:21:04;98897.44;;;25.18;53.59
40574;BME280;26283;49.020;8.644;2022-08-18T09:23:39;98892.41;;;25.20;53.55
40574;BME280;26283;49.020;8.644;2022-08-18T09:26:48;98886.25;;;25.23;53.71
40574;BME280;26283;49.020;8.644;2022-08-18T09:30:06;98874.91;;;25.25;53.22
40574;BME280;26283;49.020;8.644;2022-08-18T09:37:37;98889.34;;;25.31;53.31
40574;BME280;26283;49.020;8.644;2022-08-18T09:40:13;98896.81;;;25.30;53.28
40574;BME280;26283;49.020;8.644;2022-08-18T09:43:32;98900.88;;;25.33;53.80
40574;BME280;26283;49.020;8.644;2022-08-18T09:46:01;98895.34;;;25.33;53.91
40574;BME280;26283;49.020;8.644;2022-08-18T09:48:34;98905.22;;;25.34;52.93
40574;BME280;26283;49.020;8.644;2022-08-18T10:02:09;98919.50;;;25.36;53.01
40574;BME280;26283;49.020;8.644;2022-08-18T10:09:48;98917.56;;;25.36;52.52
40574;BME280;26283;49.020;8.644;2022-08-18T10:12:41;98931.34;;;25.36;52.52
40574;BME280;26283;49.020;8.644;2022-08-18T10:22:46;98939.31;;;25.38;52.85
40574;BME280;26283;49.020;8.644;2022-08-18T10:25:41;98925.50;;;25.38;52.29
40574;BME280;26283;49.020;8.644;2022-08-18T10:28:10;98918.03;;;25.38;52.73
40574;BME280;26283;49.020;8.644;2022-08-18T10:33:07;98890.47;;;25.38;52.22
40574;BME280;26283;49.020;8.644;2022-08-18T10:40:34;98870.84;;;25.40;53.15
40574;BME280;26283;49.020;8.644;2022-08-18T10:45:37;98866.13;;;25.40;52.36
40574;BME280;26283;49.020;8.644;2022-08-18T10:50:51;98851.19;;;25.41;52.53
40574;BME280;26283;49.020;8.644;2022-08-18T11:07:11;98837.09;;;25.43;52.06
40574;BME280;26283;49.020;8.644;2022-08-18T11:09:41;98837.09;;;25.43;51.99
40574;BME280;26283;49.020;8.644;2022-08-18T11:12:09;98825.25;;;25.42;52.17
40574;BME280;26283;49.020;8.644;2022-08-18T11:14:45;98815.81;;;25.43;52.21
40574;BME280;26283;49.020;8.644;2022-08-18T11:19:53;98827.34;;;25.45;51.88
40574;BME280;26283;49.020;8.644;2022-08-18T11:22:31;98838.38;;;25.45;51.72
40574;BME280;26283;49.020;8.644;2022-08-18T11:24:59;98841.94;;;25.46;52.12
40574;BME280;26283;49.020;8.644;2022-08-18T11:27:27;98851.84;;;25.47;52.16
40574;BME280;26283;49.020;8.644;2022-08-18T11:29:57;98857.03;;;25.48;51.70
40574;BME280;26283;49.020;8.644;2022-08-18T11:34:59;98861.44;;;25.49;51.30
40574;BME280;26283;49.020;8.644;2022-08-18T11:37:45;98849.25;;;25.50;51.58
40574;BME280;26283;49.020;8.644;2022-08-18T11:42:57;98840.66;;;25.52;51.27
40574;BME280;26283;49.020;8.644;2022-08-18T11:50:59;98836.75;;;25.53;51.51
40574;BME280;26283;49.020;8.644;2022-08-18T11:56:20;98832.88;;;25.54;51.95
40574;BME280;26283;49.020;8.644;2022-08-18T11:58:58;98833.66;;;25.54;52.08
40574;BME280;26283;49.020;8.644;2022-08-18T12:07:01;98834.94;;;25.57;52.05
40574;BME280;26283;49.020;8.644;2022-08-18T12:12:02;98812.53;;;25.58;51.76
40574;BME280;26283;49.020;8.644;2022-08-18T12:14:31;98806.69;;;25.60;51.65
40574;BME280;26283;49.020;8.644;2022-08-18T12:16:57;98802.00;;;25.60;51.99
40574;BME280;26283;49.020;8.644;2022-08-18T12:19:23;98795.34;;;25.61;51.92
40574;BME280;26283;49.020;8.644;2022-08-18T12:21:57;98782.34;;;25.62;51.66
40574;BME280;26283;49.020;8.644;2022-08-18T12:24:31;98784.00;;;25.63;51.64
40574;BME280;26283;49.020;8.644;2022-08-18T12:26:57;98774.59;;;25.64;51.32
40574;BME280;26283;49.020;8.644;2022-08-18T12:29:24;98765.16;;;25.65;51.69
40574;BME280;26283;49.020;8.644;2022-08-18T12:31:52;98778.62;;;25.67;51.89
40574;BME280;26283;49.020;8.644;2022-08-18T12:34:20;98781.06;;;25.68;51.98
40574;BME280;26283;49.020;8.644;2022-08-18T12:36:52;98787.41;;;25.69;51.93
40574;BME280;26283;49.020;8.644;2022-08-18T12:39:18;98780.75;;;25.70;51.53
40574;BME280;26283;49.020;8.644;2022-08-18T12:41:43;98776.03;;;25.70;51.78
40574;BME280;26283;49.020;8.644;2022-08-18T12:44:09;98772.13;;;25.71;52.25
40574;BME280;26283;49.020;8.644;2022-08-18T12:46:35;98773.75;;;25.72;51.78
40574;BME280;26283;49.020;8.644;2022-08-18T12:49:03;98768.22;;;25.72;52.42
40574;BME280;26283;49.020;8.644;2022-08-18T12:51:29;98765.97;;;25.74;51.60
40574;BME280;26283;49.020;8.644;2022-08-18T12:53:55;98762.38;;;25.74;51.06
40574;BME280;26283;49.020;8.644;2022-08-18T12:58:49;98759.75;;;25.77;51.30
40574;BME280;26283;49.020;8.644;2022-08-18T13:01:18;98760.22;;;25.79;51.54
40574;BME280;26283;49.020;8.644;2022-08-18T13:03:45;98762.19;;;25.79;51.16
40574;BME280;26283;49.020;8.644;2022-08-18T13:06:11;98759.09;;;25.80;51.09
40574;BME280;26283;49.020;8.644;2022-08-18T13:08:37;98751.63;;;25.81;51.00
40574;BME280;26283;49.020;8.644;2022-08-18T13:11:04;98745.78;;;25.82;50.51
40574;BME280;26283;49.020;8.644;2022-08-18T13:13:34;98739.12;;;25.83;50.80
40574;BME280;26283;49.020;8.644;2022-08-18T13:16:00;98736.34;;;25.83;50.53
40574;BME280;26283;49.020;8.644;2022-08-18T13:18:25;98734.06;;;25.85;50.88
40574;BME280;26283;49.020;8.644;2022-08-18T13:20:51;98723.84;;;25.86;50.62
40574;BME280;26283;49.020;8.644;2022-08-18T13:23:16;98718.31;;;25.86;50.88
40574;BME280;26283;49.020;8.644;2022-08-18T13:25:41;98721.56;;;25.88;50.80
40574;BME280;26283;49.020;8.644;2022-08-18T13:28:08;98722.38;;;25.88;50.62
40574;BME280;26283;49.020;8.644;2022-08-18T13:30:33;98715.72;;;25.89;50.69
40574;BME280;26283;49.020;8.644;2022-08-18T13:33:00;98700.78;;;25.90;50.64
40574;BME280;26283;49.020;8.644;2022-08-18T13:35:26;98695.25;;;25.90;51.28
40574;BME280;26283;49.020;8.644;2022-08-18T13:37:52;98687.78;;;25.91;50.69
40574;BME280;26283;49.020;8.644;2022-08-18T13:40:21;98696.53;;;25.93;50.28
40574;BME280;26283;49.020;8.644;2022-08-18T13:42:47;98685.50;;;25.93;50.17
40574;BME280;26283;49.020;8.644;2022-08-18T13:45:19;98680.44;;;25.95;50.56
40574;BME280;26283;49.020;8.644;2022-08-18T13:47:45;98671.84;;;25.97;50.35
40574;BME280;26283;49.020;8.644;2022-08-18T13:50:11;98676.22;;;25.98;49.91
40574;BME280;26283;49.020;8.644;2022-08-18T13:52:38;98673.91;;;26.00;50.10
40574;BME280;26283;49.020;8.644;2022-08-18T13:55:06;98673.56;;;26.01;49.94
40574;BME280;26283;49.020;8.644;2022-08-18T13:57:33;98671.62;;;26.02;49.92
40574;BME280;26283;49.020;8.644;2022-08-18T13:59:58;98676.00;;;26.03;49.45
40574;BME280;26283;49.020;8.644;2022-08-18T14:02:24;98675.66;;;26.04;49.51
40574;BME280;26283;49.020;8.644;2022-08-18T14:04:49;98680.84;;;26.06;49.51
40574;BME280;26283;49.020;8.644;2022-08-18T14:07:15;98672.56;;;26.06;49.51
40574;BME280;26283;49.020;8.644;2022-08-18T14:09:42;98681.34;;;26.08;49.32
40574;BME280;26283;49.020;8.644;2022-08-18T14:12:19;98666.38;;;26.09;49.46
40574;BME280;26283;49.020;8.644;2022-08-18T14:14:45;98668.81;;;26.10;49.76
40574;BME280;26283;49.020;8.644;2022-08-18T14:17:11;98675.16;;;26.11;49.58
40574;BME280;26283;49.020;8.644;2022-08-18T14:19:37;98669.63;;;26.11;49.79
40574;BME280;26283;49.020;8.644;2022-08-18T14:22:21;98677.56;;;26.12;49.76
40574;BME280;26283;49.020;8.644;2022-08-18T14:25:05;98673.66;;;26.13;49.80
40574;BME280;26283;49.020;8.644;2022-08-18T14:27:49;98676.09;;;26.15;49.85
40574;BME280;26283;49.020;8.644;2022-08-18T14:30:15;98665.84;;;26.15;49.63
40574;BME280;26283;49.020;8.644;2022-08-18T14:32:43;98675.75;;;26.16;49.86
40574;BME280;26283;49.020;8.644;2022-08-18T14:35:10;98673.81;;;26.17;49.69
40574;BME280;26283;49.020;8.644;2022-08-18T14:37:36;98680.63;;;26.19;49.48
40574;BME280;26283;49.020;8.644;2022-08-18T14:40:03;98680.25;;;26.21;49.53
40574;BME280;26283;49.020;8.644;2022-08-18T14:42:29;98681.06;;;26.21;49.39
40574;BME280;26283;49.020;8.644;2022-08-18T14:44:54;98674.41;;;26.22;49.11
40574;BME280;26283;49.020;8.644;2022-08-18T14:47:21;98678.78;;;26.23;49.27
40574;BME280;26283;49.020;8.644;2022-08-18T14:49:47;98684.78;;;26.25;49.36
40574;BME280;26283;49.020;8.644;2022-08-18T14:52:12;98688.34;;;26.26;48.99
40574;BME280;26283;49.020;8.644;2022-08-18T14:54:38;98686.06;;;26.28;48.89
40574;BME280;26283;49.020;8.644;2022-08-18T14:57:04;98686.88;;;26.28;48.74
40574;BME280;26283;49.020;8.644;2022-08-18T14:59:34;98684.13;;;26.28;48.98
40574;BME280;26283;49.020;8.644;2022-08-18T15:01:59;98682.66;;;26.31;48.95
40574;BME280;26283;49.020;8.644;2022-08-18T15:04:25;98687.03;;;26.32;48.89
40574;BME280;26283;49.020;8.644;2022-08-18T15:06:52;98681.53;;;26.32;48.52
40574;BME280;26283;49.020;8.644;2022-08-18T15:09:17;98676.00;;;26.32;48.20
40574;BME280;26283;49.020;8.644;2022-08-18T15:11:43;98675.31;;;26.35;48.13
40574;BME280;26283;49.020;8.644;2022-08-18T15:14:08;98689.94;;;26.36;48.11
40574;BME280;26283;49.020;8.644;2022-08-18T15:16:34;98688.81;;;26.37;48.15
40574;BME280;26283;49.020;8.644;2022-08-18T15:19:01;98696.75;;;26.38;48.40
40574;BME280;26283;49.020;8.644;2022-08-18T15:21:28;98691.22;;;26.38;48.70
40574;BME280;26283;49.020;8.644;2022-08-18T15:24:12;98698.37;;;26.39;48.67
40574;BME280;26283;49.020;8.644;2022-08-18T15:26:57;98696.41;;;26.40;48.76
40574;BME280;26283;49.020;8.644;2022-08-18T15:29:24;98695.28;;;26.41;48.81
40574;BME280;26283;49.020;8.644;2022-08-18T15:31:50;98695.28;;;26.41;48.92
40574;BME280;26283;49.020;8.644;2022-08-18T15:34:16;98695.72;;;26.43;49.08
40574;BME280;26283;49.020;8.644;2022-08-18T15:36:42;98699.28;;;26.43;49.35
40574;BME280;26283;49.020;8.644;2022-08-18T15:39:09;98707.59;;;26.43;48.91
40574;BME280;26283;49.020;8.644;2022-08-18T15:44:03;98703.34;;;26.46;49.03
40574;BME280;26283;49.020;8.644;2022-08-18T15:46:35;98706.09;;;26.46;49.15
40574;BME280;26283;49.020;8.644;2022-08-18T15:49:01;98703.00;;;26.47;49.39
40574;BME280;26283;49.020;8.644;2022-08-18T15:51:29;98701.06;;;26.48;49.33
40574;BME280;26283;49.020;8.644;2022-08-18T15:53:55;98701.88;;;26.48;49.56
40574;BME280;26283;49.020;8.644;2022-08-18T15:56:22;98697.97;;;26.49;49.36
40574;BME280;26283;49.020;8.644;2022-08-18T15:58:49;98698.75;;;26.50;49.43
40574;BME280;26283;49.020;8.644;2022-08-18T16:01:15;98699.56;;;26.50;49.48